createdAt,value
2022-09-14T00:00:45.606Z,1.73
2022-09-14T00:05:52.747Z,1.40
2022-09-14T00:11:01.022Z,2.88
2022-09-14T00:16:11.345Z,1.27
2022-09-14T00:21:20.785Z,1.45
2022-09-14T00:26:29.260Z,3.35
2022-09-14T00:31:40.268Z,3.10
2022-09-14T00:36:56.743Z,4.15
2022-09-14T00:42:16.987Z,4.13
2022-09-14T00:47:49.318Z,6.22
2022-09-14T00:53:15.118Z,4.25
2022-09-14T00:58:25.887Z,4.97
2022-09-14T01:03:33.662Z,5.05
2022-09-14T01:09:10.169Z,4.25
2022-09-14T01:14:41.935Z,5.25
2022-09-14T01:20:16.302Z,3.92
2022-09-14T01:25:59.059Z,5.88
2022-09-14T01:31:14.824Z,6.88
2022-09-14T01:36:24.361Z,4.82
2022-09-14T01:41:31.961Z,5.93
2022-09-14T01:46:43.457Z,5.45
2022-09-14T01:52:03.658Z,6.90
2022-09-14T01:57:35.876Z,7.38
2022-09-14T02:02:52.293Z,7.30
2022-09-14T02:07:57.985Z,6.65
2022-09-14T02:13:26.056Z,5.70
2022-09-14T02:18:36.742Z,6.30
2022-09-14T02:23:45.837Z,7.10
2022-09-14T02:28:55.845Z,6.82
2022-09-14T02:34:15.723Z,4.80
2022-09-14T02:39:29.781Z,6.93
2022-09-14T02:44:46.791Z,6.00
2022-09-14T02:50:31.294Z,5.47
2022-09-14T02:55:45.201Z,5.60
2022-09-14T03:00:53.198Z,6.38
2022-09-14T03:11:25.551Z,6.13
2022-09-14T03:16:32.750Z,5.72
2022-09-14T03:21:50.795Z,4.97
2022-09-14T03:26:55.330Z,6.65
2022-09-14T03:32:03.397Z,8.27
2022-09-14T03:37:12.720Z,4.18
2022-09-14T03:42:27.285Z,5.07
2022-09-14T03:47:33.346Z,8.18
2022-09-14T03:52:47.852Z,6.32
2022-09-14T03:58:01.600Z,5.85
2022-09-14T04:03:28.470Z,6.70
2022-09-14T04:08:38.975Z,5.25
2022-09-14T04:14:00.151Z,7.15
2022-09-14T04:19:14.612Z,6.80
2022-09-14T04:24:36.218Z,6.80
2022-09-14T04:29:46.959Z,5.75
2022-09-14T04:34:52.037Z,5.70
2022-09-14T04:39:56.515Z,6.97
2022-09-14T04:45:11.906Z,6.53
2022-09-14T04:50:33.632Z,9.30
2022-09-14T04:55:49.143Z,7.93
2022-09-14T05:00:56.135Z,9.52
2022-09-14T05:06:07.223Z,8.13
2022-09-14T05:11:20.069Z,8.63
2022-09-14T05:17:01.493Z,7.35
2022-09-14T05:22:11.365Z,8.85
2022-09-14T05:27:16.225Z,7.57
2022-09-14T05:32:20.870Z,8.25
2022-09-14T05:37:28.243Z,7.95
2022-09-14T05:42:33.117Z,7.82
2022-09-14T05:47:39.264Z,7.38
2022-09-14T05:52:48.941Z,6.78
2022-09-14T05:57:54.476Z,8.35
2022-09-14T06:02:59.368Z,6.20
2022-09-14T06:08:07.297Z,8.80
2022-09-14T06:13:15.212Z,8.30
2022-09-14T06:18:19.644Z,8.55
2022-09-14T06:23:26.712Z,8.02
2022-09-14T06:28:32.062Z,9.65
2022-09-14T06:33:36.859Z,12.55
2022-09-14T06:38:44.656Z,9.82
2022-09-14T06:43:49.477Z,9.90
2022-09-14T06:48:55.825Z,8.20
2022-09-14T06:54:03.554Z,8.45
2022-09-14T06:59:09.485Z,10.68
2022-09-14T07:04:14.622Z,7.55
2022-09-14T07:09:22.553Z,6.38
2022-09-14T07:14:31.593Z,6.53
2022-09-14T07:19:36.791Z,11.02
2022-09-14T07:24:43.832Z,7.53
2022-09-14T07:29:48.270Z,6.93
2022-09-14T07:34:53.243Z,6.65
2022-09-14T07:40:01.287Z,7.45
2022-09-14T07:45:06.117Z,9.20
2022-09-14T07:50:11.859Z,7.85
2022-09-14T07:55:21.149Z,7.68
2022-09-14T08:00:25.699Z,8.30
2022-09-14T08:05:31.294Z,8.32
2022-09-14T08:10:40.054Z,9.00
2022-09-14T08:15:44.735Z,7.65
2022-09-14T08:20:49.621Z,7.93
2022-09-14T08:25:57.853Z,7.95
2022-09-14T08:31:07.403Z,7.40
2022-09-14T08:36:14.767Z,8.23
2022-09-14T08:41:31.912Z,7.93
2022-09-14T08:46:38.548Z,8.50
2022-09-14T08:51:43.196Z,8.23
2022-09-14T08:56:56.370Z,6.40
2022-09-14T09:02:09.300Z,6.40
2022-09-14T09:07:21.456Z,6.13
2022-09-14T09:12:38.759Z,5.78
2022-09-14T09:17:47.698Z,7.38
2022-09-14T09:22:57.883Z,12.18
2022-09-14T09:28:14.630Z,13.00
2022-09-14T09:33:23.177Z,11.45
2022-09-14T09:38:40.377Z,8.90
2022-09-14T09:44:07.138Z,6.63
2022-09-14T09:49:20.996Z,13.00
2022-09-14T09:54:29.843Z,10.70
2022-09-14T09:59:38.634Z,7.70
2022-09-14T10:04:59.375Z,7.38
2022-09-14T10:10:06.188Z,7.17
2022-09-14T10:15:19.056Z,6.55
2022-09-14T10:20:25.533Z,7.47
2022-09-14T10:25:30.053Z,6.97
2022-09-14T10:30:43.630Z,5.65
2022-09-14T10:35:55.851Z,5.28
2022-09-14T10:41:11.362Z,4.93
2022-09-14T10:46:24.339Z,6.47
2022-09-14T10:51:40.718Z,4.78
2022-09-14T10:57:03.634Z,5.05
2022-09-14T11:02:59.329Z,4.70
2022-09-14T11:08:17.854Z,4.68
2022-09-14T11:13:42.356Z,4.68
2022-09-14T11:18:59.113Z,4.10
2022-09-14T11:24:14.390Z,3.20
2022-09-14T11:29:26.158Z,3.55
2022-09-14T11:34:38.361Z,3.15
2022-09-14T11:39:46.053Z,3.30
2022-09-14T11:44:56.803Z,2.40
2022-09-14T11:50:09.517Z,2.50
2022-09-14T11:55:20.597Z,2.83
2022-09-14T12:00:48.904Z,2.95
2022-09-14T12:05:56.040Z,1.90
2022-09-14T12:11:29.111Z,2.20
2022-09-14T12:16:34.740Z,11.65
2022-09-14T12:21:41.977Z,24.40
2022-09-14T12:26:46.799Z,19.70
2022-09-14T12:32:07.620Z,4.43
2022-09-14T12:37:34.740Z,4.45
2022-09-14T12:42:39.272Z,2.97
2022-09-14T12:47:53.660Z,2.50
2022-09-14T18:22:57.260Z,1.77
2022-09-14T18:28:02.043Z,2.78
2022-09-14T18:33:06.854Z,0.65
2022-09-14T18:38:14.712Z,0.45
2022-09-14T18:43:19.947Z,0.40
2022-09-14T18:48:26.405Z,0.40
2022-09-14T22:26:34.290Z,8.95
2022-09-14T22:31:40.454Z,7.50
2022-09-14T22:36:45.845Z,8.77
2022-09-14T22:41:52.841Z,9.98
2022-09-14T22:46:57.316Z,9.13
2022-09-14T22:52:01.768Z,9.98
2022-09-14T22:57:09.214Z,10.85
2022-09-14T23:02:14.798Z,10.15
2022-09-14T23:07:20.181Z,9.40
2022-09-14T23:12:27.260Z,7.25
2022-09-14T23:17:31.758Z,7.20
2022-09-14T23:22:36.284Z,6.18
2022-09-14T23:27:43.293Z,8.93
2022-09-14T23:32:47.836Z,15.68
2022-09-14T23:37:54.310Z,12.05
2022-09-14T23:43:04.881Z,10.40
2022-09-14T23:48:09.404Z,11.98
2022-09-14T23:53:13.863Z,13.07
2022-09-14T23:58:21.266Z,13.80
